createdAt,value
2019-02-23T00:00:45.238Z,0.00
2019-02-23T00:01:45.219Z,0.00
2019-02-23T00:02:45.210Z,0.00
2019-02-23T00:03:45.227Z,0.00
2019-02-23T00:04:45.212Z,0.00
2019-02-23T00:05:45.182Z,0.00
2019-02-23T00:06:45.192Z,0.00
2019-02-23T00:07:45.165Z,0.00
2019-02-23T00:08:45.172Z,0.00
2019-02-23T00:09:45.142Z,0.00
2019-02-23T00:10:45.132Z,0.00
2019-02-23T00:11:45.121Z,0.00
2019-02-23T00:12:45.128Z,0.00
2019-02-23T00:13:45.093Z,0.00
2019-02-23T00:14:45.081Z,0.00
2019-02-23T00:15:45.086Z,0.00
2019-02-23T00:16:45.078Z,0.00
2019-02-23T00:17:45.085Z,0.00
2019-02-23T00:18:45.064Z,0.00
2019-02-23T00:19:45.066Z,0.00
2019-02-23T00:20:45.022Z,0.00
2019-02-23T00:21:45.026Z,0.00
2019-02-23T00:22:45.024Z,0.00
2019-02-23T00:23:45.001Z,0.00
2019-02-23T00:24:45.009Z,0.00
2019-02-23T00:25:44.973Z,0.00
2019-02-23T00:26:44.962Z,0.00
2019-02-23T00:27:44.958Z,0.00
2019-02-23T00:28:44.948Z,0.00
2019-02-23T00:29:44.939Z,0.00
2019-02-23T00:30:44.949Z,0.00
2019-02-23T00:31:44.911Z,0.00
2019-02-23T00:32:44.898Z,0.00
2019-02-23T00:33:44.888Z,0.00
2019-02-23T00:34:44.899Z,0.00
2019-02-23T00:35:44.894Z,0.00
2019-02-23T00:36:44.874Z,0.00
2019-02-23T00:37:44.851Z,0.00
2019-02-23T00:38:44.838Z,0.00
2019-02-23T00:39:44.834Z,0.00
2019-02-23T00:40:44.858Z,0.00
2019-02-23T00:41:44.851Z,0.00
2019-02-23T00:42:44.820Z,0.00
2019-02-23T00:43:44.786Z,0.00
2019-02-23T00:44:44.776Z,0.00
2019-02-23T00:45:44.767Z,0.00
2019-02-23T00:46:44.757Z,0.00
2019-02-23T00:47:44.786Z,0.00
2019-02-23T00:48:44.763Z,0.00
2019-02-23T00:49:44.731Z,0.00
2019-02-23T00:50:44.722Z,0.00
2019-02-23T00:51:44.704Z,0.00
2019-02-23T00:52:44.739Z,0.00
2019-02-23T00:53:44.771Z,0.00
2019-02-23T00:54:44.691Z,0.00
2019-02-23T00:55:44.663Z,0.00
2019-02-23T00:56:44.673Z,0.00
2019-02-23T00:57:44.665Z,0.00
2019-02-23T00:58:44.635Z,0.00
2019-02-23T00:59:44.640Z,0.00
2019-02-23T01:00:44.624Z,0.00
2019-02-23T01:01:44.611Z,0.00
2019-02-23T01:02:44.618Z,0.00
2019-02-23T01:03:44.582Z,0.00
2019-02-23T01:04:44.575Z,0.00
2019-02-23T01:05:44.571Z,0.00
2019-02-23T01:06:44.550Z,0.00
2019-02-23T01:07:44.583Z,0.00
2019-02-23T01:08:45.304Z,0.00
2019-02-23T01:09:44.525Z,0.00
2019-02-23T01:10:44.510Z,0.00
2019-02-23T01:11:44.507Z,0.00
2019-02-23T01:12:44.515Z,0.00
2019-02-23T01:13:44.520Z,0.00
2019-02-23T01:14:44.483Z,0.00
2019-02-23T01:15:44.463Z,0.00
2019-02-23T01:16:44.448Z,0.00
2019-02-23T01:17:44.442Z,0.00
2019-02-23T01:18:44.451Z,0.00
2019-02-23T01:19:47.722Z,0.00
2019-02-23T01:20:44.418Z,0.00
2019-02-23T01:21:44.410Z,0.00
2019-02-23T01:22:44.392Z,0.00
2019-02-23T01:23:44.490Z,0.00
2019-02-23T01:24:44.389Z,0.00
2019-02-23T01:25:44.365Z,0.00
2019-02-23T01:26:44.352Z,0.00
2019-02-23T01:27:44.344Z,0.00
2019-02-23T01:28:44.349Z,0.00
2019-02-23T01:29:44.329Z,0.00
2019-02-23T01:30:44.307Z,0.00
2019-02-23T01:31:44.340Z,0.00
2019-02-23T01:32:44.292Z,0.00
2019-02-23T01:33:44.286Z,0.00
2019-02-23T01:34:44.270Z,0.00
2019-02-23T01:35:44.262Z,0.00
2019-02-23T01:36:44.243Z,0.00
2019-02-23T01:37:44.256Z,0.00
2019-02-23T01:38:44.224Z,0.00
2019-02-23T01:39:44.232Z,0.00
2019-02-23T01:40:44.234Z,0.00
2019-02-23T01:41:44.207Z,0.00
2019-02-23T01:42:44.213Z,0.00
2019-02-23T01:43:44.218Z,0.00
2019-02-23T01:44:44.191Z,0.00
2019-02-23T01:45:44.158Z,0.00
2019-02-23T01:46:44.151Z,0.00
2019-02-23T01:47:44.180Z,0.00
2019-02-23T01:48:44.122Z,0.00
2019-02-23T01:49:44.113Z,0.00
2019-02-23T01:50:44.104Z,0.00
2019-02-23T01:51:44.107Z,0.00
2019-02-23T01:52:44.088Z,0.00
2019-02-23T01:53:44.095Z,0.00
2019-02-23T01:54:44.069Z,0.00
2019-02-23T01:55:44.052Z,0.00
2019-02-23T01:56:44.038Z,0.00
2019-02-23T01:57:44.060Z,0.00
2019-02-23T01:58:44.053Z,0.00
2019-02-23T01:59:44.012Z,0.00
2019-02-23T02:00:44.004Z,0.00
2019-02-23T02:01:43.987Z,0.00
2019-02-23T02:02:43.977Z,0.00
2019-02-23T02:03:43.973Z,0.00
2019-02-23T02:04:43.995Z,0.00
2019-02-23T02:05:43.957Z,0.00
2019-02-23T02:06:43.944Z,0.00
2019-02-23T02:07:43.927Z,0.00
2019-02-23T02:08:43.922Z,0.00
2019-02-23T02:09:43.934Z,0.00
2019-02-23T02:10:43.895Z,0.00
2019-02-23T02:11:43.895Z,0.00
2019-02-23T02:12:43.884Z,0.00
2019-02-23T02:13:43.878Z,0.00
2019-02-23T02:14:43.853Z,0.00
2019-02-23T02:15:43.870Z,0.00
2019-02-23T02:16:43.844Z,0.00
2019-02-23T02:17:43.845Z,0.00
2019-02-23T02:18:43.844Z,0.00
2019-02-23T02:19:43.803Z,0.00
2019-02-23T02:20:43.825Z,0.00
2019-02-23T02:21:43.803Z,0.00
2019-02-23T02:22:43.782Z,0.00
2019-02-23T02:23:43.795Z,0.00
2019-02-23T02:24:43.759Z,0.00
2019-02-23T02:25:43.803Z,0.00
2019-02-23T02:26:43.738Z,0.00
2019-02-23T02:27:43.750Z,0.00
2019-02-23T02:28:43.711Z,0.00
2019-02-23T02:29:43.714Z,0.00
2019-02-23T02:30:43.697Z,0.00
2019-02-23T02:31:43.704Z,0.00
2019-02-23T02:32:43.704Z,0.00
2019-02-23T02:33:43.665Z,0.00
2019-02-23T02:34:43.664Z,0.00
2019-02-23T02:35:43.660Z,0.00
2019-02-23T02:36:43.661Z,0.00
2019-02-23T02:37:43.627Z,0.00
2019-02-23T02:38:43.620Z,0.00
2019-02-23T02:39:43.604Z,0.00
2019-02-23T02:40:43.600Z,0.00
2019-02-23T02:41:43.636Z,0.00
2019-02-23T02:42:43.606Z,0.00
2019-02-23T02:43:43.582Z,0.00
2019-02-23T02:44:43.557Z,0.00
2019-02-23T02:45:43.550Z,0.00
2019-02-23T02:46:43.533Z,0.00
2019-02-23T02:47:43.553Z,0.00
2019-02-23T02:48:43.514Z,0.00
2019-02-23T02:49:43.506Z,0.00
2019-02-23T02:50:43.499Z,0.00
2019-02-23T02:51:43.485Z,0.00
2019-02-23T02:52:43.480Z,0.00
2019-02-23T02:53:43.480Z,0.00
2019-02-23T02:54:43.447Z,0.00
2019-02-23T02:55:43.450Z,0.00
2019-02-23T02:56:43.434Z,0.00
2019-02-23T02:57:43.429Z,0.00
2019-02-23T02:58:43.441Z,0.00
2019-02-23T02:59:43.427Z,0.00
2019-02-23T03:00:43.384Z,0.00
2019-02-23T03:01:43.384Z,0.00
2019-02-23T03:02:43.387Z,0.00
2019-02-23T03:03:43.356Z,0.00
2019-02-23T03:04:43.377Z,0.00
2019-02-23T03:05:43.338Z,0.00
2019-02-23T03:06:43.329Z,0.00
2019-02-23T03:07:43.320Z,0.00
2019-02-23T03:08:43.315Z,0.00
2019-02-23T03:09:43.310Z,0.00
2019-02-23T03:10:43.326Z,0.00
2019-02-23T03:11:43.290Z,0.00
2019-02-23T03:12:43.264Z,0.00
2019-02-23T03:13:43.272Z,0.00
2019-02-23T03:14:43.261Z,0.00
2019-02-23T03:15:43.244Z,0.00
2019-02-23T03:16:43.264Z,0.00
2019-02-23T03:17:43.232Z,0.00
2019-02-23T03:18:43.218Z,0.00
2019-02-23T03:19:43.204Z,0.00
2019-02-23T03:20:43.189Z,0.00
2019-02-23T03:21:43.209Z,0.00
2019-02-23T03:22:43.175Z,0.00
2019-02-23T03:23:43.154Z,0.00
2019-02-23T03:24:43.169Z,0.00
2019-02-23T03:25:43.130Z,0.00
2019-02-23T03:26:43.155Z,0.00
2019-02-23T03:27:43.117Z,0.00
2019-02-23T03:28:43.107Z,0.00
2019-02-23T03:29:43.098Z,0.00
2019-02-23T03:30:43.116Z,0.00
2019-02-23T03:31:43.069Z,0.00
2019-02-23T03:32:43.092Z,0.00
2019-02-23T03:33:43.127Z,0.00
2019-02-23T03:34:43.054Z,0.00
2019-02-23T03:35:43.043Z,0.00
2019-02-23T03:36:43.019Z,0.00
2019-02-23T03:37:43.036Z,0.00
2019-02-23T03:38:43.809Z,0.00
2019-02-23T03:39:42.999Z,0.00
2019-02-23T03:40:42.993Z,0.00
2019-02-23T03:41:42.977Z,0.00
2019-02-23T03:42:42.964Z,0.00
2019-02-23T03:43:42.966Z,0.00
2019-02-23T03:44:42.938Z,0.00
2019-02-23T03:45:42.933Z,0.00
2019-02-23T03:46:42.919Z,0.00
2019-02-23T03:47:42.913Z,0.00
2019-02-23T03:48:42.920Z,0.00
2019-02-23T03:49:42.898Z,0.00
2019-02-23T03:50:49.087Z,0.00
2019-02-23T03:51:44.030Z,0.00
2019-02-23T03:52:42.870Z,0.00
2019-02-23T03:53:42.866Z,0.00
2019-02-23T03:54:42.842Z,0.00
2019-02-23T03:55:42.827Z,0.00
2019-02-23T03:56:42.834Z,0.00
2019-02-23T03:57:42.808Z,0.00
2019-02-23T03:58:42.801Z,0.00
2019-02-23T03:59:42.809Z,0.00
2019-02-23T04:00:42.789Z,0.00
2019-02-23T04:01:42.789Z,0.00
2019-02-23T04:02:42.761Z,0.00
2019-02-23T04:03:42.749Z,0.00
2019-02-23T04:04:42.738Z,0.00
2019-02-23T04:05:42.731Z,0.00
2019-02-23T04:06:42.750Z,0.00
2019-02-23T04:07:42.711Z,0.00
2019-02-23T04:08:42.693Z,0.00
2019-02-23T04:09:42.680Z,0.00
2019-02-23T04:10:42.675Z,0.00
2019-02-23T04:11:42.715Z,0.00
2019-02-23T04:12:42.659Z,0.00
2019-02-23T04:13:43.299Z,0.00
2019-02-23T04:14:42.637Z,0.00
2019-02-23T04:15:42.626Z,0.00
2019-02-23T04:16:42.613Z,0.00
2019-02-23T04:17:42.621Z,0.00
2019-02-23T04:18:42.616Z,0.00
2019-02-23T04:19:42.619Z,0.00
2019-02-23T04:20:42.580Z,0.00
2019-02-23T04:21:42.562Z,0.00
2019-02-23T04:22:42.570Z,0.00
2019-02-23T04:23:42.572Z,0.00
2019-02-23T04:24:42.543Z,0.00
2019-02-23T04:25:42.525Z,0.00
2019-02-23T04:26:42.521Z,0.00
2019-02-23T04:27:42.499Z,0.00
2019-02-23T04:28:42.516Z,0.00
2019-02-23T04:29:42.487Z,0.00
2019-02-23T04:30:42.471Z,0.00
2019-02-23T04:31:42.467Z,0.00
2019-02-23T04:32:42.457Z,0.00
2019-02-23T04:33:42.476Z,0.00
2019-02-23T04:34:42.454Z,0.00
2019-02-23T04:35:42.420Z,0.00
2019-02-23T04:36:42.444Z,0.00
2019-02-23T04:37:42.407Z,0.00
2019-02-23T04:38:43.310Z,0.00
2019-02-23T04:39:42.406Z,0.00
2019-02-23T04:40:42.370Z,0.00
2019-02-23T04:41:42.357Z,0.00
2019-02-23T04:42:42.346Z,0.00
2019-02-23T04:43:44.205Z,0.00
2019-02-23T04:44:42.844Z,0.00
2019-02-23T04:45:42.352Z,0.00
2019-02-23T04:46:42.319Z,0.00
2019-02-23T04:47:42.299Z,0.00
2019-02-23T04:48:42.285Z,0.00
2019-02-23T04:49:42.309Z,0.00
2019-02-23T04:50:42.270Z,0.00
2019-02-23T04:51:42.266Z,0.00
2019-02-23T04:52:42.308Z,0.00
2019-02-23T04:53:42.237Z,0.00
2019-02-23T04:54:42.226Z,0.00
2019-02-23T04:55:42.239Z,0.00
2019-02-23T04:56:42.223Z,0.00
2019-02-23T04:57:42.201Z,0.00
2019-02-23T04:58:42.197Z,0.00
2019-02-23T04:59:42.172Z,0.00
2019-02-23T05:00:44.959Z,0.00
2019-02-23T05:01:42.154Z,0.00
2019-02-23T05:02:42.151Z,0.00
2019-02-23T05:03:42.141Z,0.00
2019-02-23T05:04:42.143Z,0.00
2019-02-23T05:05:42.122Z,0.00
2019-02-23T05:06:42.148Z,0.00
2019-02-23T05:07:42.092Z,0.00
2019-02-23T05:08:42.093Z,0.00
2019-02-23T05:09:42.084Z,0.00
2019-02-23T05:10:42.106Z,0.00
2019-02-23T05:11:42.055Z,0.00
2019-02-23T05:12:42.063Z,0.00
2019-02-23T05:13:42.030Z,0.00
2019-02-23T05:14:42.031Z,0.00
2019-02-23T05:15:42.037Z,0.00
2019-02-23T05:16:42.013Z,0.00
2019-02-23T05:17:42.060Z,0.00
2019-02-23T05:18:41.988Z,0.00
2019-02-23T05:19:41.969Z,0.00
2019-02-23T05:20:41.971Z,0.00
2019-02-23T05:21:41.950Z,0.00
2019-02-23T05:22:41.952Z,0.00
2019-02-23T05:23:41.961Z,0.00
2019-02-23T05:24:41.930Z,0.00
2019-02-23T05:25:41.908Z,0.00
2019-02-23T05:26:41.902Z,0.00
2019-02-23T05:27:41.905Z,0.00
2019-02-23T05:28:41.914Z,0.00
2019-02-23T05:29:41.879Z,0.00
2019-02-23T05:30:41.872Z,0.00
2019-02-23T05:31:41.847Z,0.00
2019-02-23T05:32:41.839Z,4.00
2019-02-23T05:33:41.830Z,4.00
2019-02-23T05:34:41.835Z,4.00
2019-02-23T05:35:41.816Z,0.00
2019-02-23T05:36:41.804Z,4.00
2019-02-23T05:37:41.793Z,4.00
2019-02-23T05:38:41.783Z,4.00
2019-02-23T05:39:41.783Z,8.00
2019-02-23T05:40:41.762Z,8.00
2019-02-23T05:41:41.753Z,8.00
2019-02-23T05:42:41.740Z,8.00
2019-02-23T05:43:41.723Z,12.00
2019-02-23T05:44:41.733Z,16.00
2019-02-23T05:45:41.738Z,16.00
2019-02-23T05:46:41.706Z,20.00
2019-02-23T05:47:41.693Z,28.00
2019-02-23T05:48:41.678Z,32.00
2019-02-23T05:49:41.668Z,36.00
2019-02-23T05:50:41.690Z,48.00
2019-02-23T05:51:41.648Z,60.00
2019-02-23T05:52:41.642Z,68.00
2019-02-23T05:53:41.627Z,76.00
2019-02-23T05:54:41.612Z,80.00
2019-02-23T05:55:41.610Z,92.00
2019-02-23T05:56:41.620Z,100.00
2019-02-23T05:57:41.589Z,112.00
2019-02-23T05:58:41.649Z,124.00
2019-02-23T05:59:41.570Z,140.00
2019-02-23T06:00:41.559Z,152.00
2019-02-23T06:01:41.569Z,168.00
2019-02-23T06:02:44.743Z,184.00
2019-02-23T06:03:41.519Z,204.00
2019-02-23T06:04:41.527Z,224.00
2019-02-23T06:05:41.505Z,244.00
2019-02-23T06:06:41.530Z,272.00
2019-02-23T06:07:41.518Z,304.00
2019-02-23T06:08:41.479Z,336.00
2019-02-23T06:09:41.472Z,376.00
2019-02-23T06:10:41.464Z,416.00
2019-02-23T06:11:41.455Z,468.00
2019-02-23T06:12:41.448Z,520.00
2019-02-23T06:13:41.428Z,576.00
2019-02-23T06:14:41.419Z,636.00
2019-02-23T06:15:41.395Z,704.00
2019-02-23T06:16:41.403Z,772.00
2019-02-23T06:17:41.445Z,840.00
2019-02-23T06:18:41.363Z,916.00
2019-02-23T06:19:41.363Z,988.00
2019-02-23T06:20:41.353Z,1076.00
2019-02-23T06:21:52.881Z,1152.00
2019-02-23T06:22:42.352Z,1240.00
2019-02-23T06:23:41.313Z,1332.00
2019-02-23T06:24:41.319Z,1428.00
2019-02-23T06:25:41.291Z,1524.00
2019-02-23T06:26:41.289Z,1628.00
2019-02-23T06:27:41.321Z,1736.00
2019-02-23T06:28:41.278Z,1844.00
2019-02-23T06:29:41.255Z,1956.00
2019-02-23T06:30:41.243Z,2076.00
2019-02-23T06:31:41.239Z,2196.00
2019-02-23T06:32:41.253Z,2320.00
2019-02-23T06:33:41.277Z,2452.00
2019-02-23T06:34:41.219Z,2584.00
2019-02-23T06:35:41.195Z,2708.00
2019-02-23T06:36:41.182Z,2836.00
2019-02-23T06:37:41.180Z,2968.00
2019-02-23T06:38:41.169Z,3100.00
2019-02-23T06:39:41.183Z,3240.00
2019-02-23T06:40:41.155Z,3384.00
2019-02-23T06:41:41.144Z,3544.00
2019-02-23T06:42:41.133Z,3712.00
2019-02-23T06:43:41.111Z,3888.00
2019-02-23T06:44:41.125Z,4060.00
2019-02-23T06:45:41.164Z,4232.00
2019-02-23T06:46:41.096Z,4424.00
2019-02-23T06:47:41.071Z,4644.00
2019-02-23T06:48:41.059Z,4924.00
2019-02-23T06:49:41.069Z,5232.00
2019-02-23T06:50:41.042Z,5564.00
2019-02-23T06:51:41.041Z,5908.00
2019-02-23T06:52:41.031Z,6188.00
2019-02-23T06:53:41.120Z,6552.00
2019-02-23T06:54:41.026Z,6820.00
2019-02-23T06:55:40.998Z,6996.00
2019-02-23T06:56:40.983Z,7016.00
2019-02-23T06:57:40.983Z,7220.00
2019-02-23T06:58:41.009Z,7620.00
2019-02-23T06:59:40.989Z,7908.00
2019-02-23T07:00:40.944Z,8184.00
2019-02-23T07:01:40.930Z,8452.00
2019-02-23T07:02:40.919Z,8764.00
2019-02-23T07:03:40.923Z,9076.00
2019-02-23T07:04:40.906Z,9472.00
2019-02-23T07:05:40.933Z,9916.00
2019-02-23T07:06:40.884Z,10152.00
2019-02-23T07:07:40.874Z,10360.00
2019-02-23T07:08:40.855Z,10380.00
2019-02-23T07:09:40.851Z,10584.00
2019-02-23T07:10:40.840Z,10612.00
2019-02-23T07:11:40.862Z,10576.00
2019-02-23T07:12:40.823Z,10852.00
2019-02-23T07:13:40.811Z,11680.00
2019-02-23T07:14:40.804Z,12104.00
2019-02-23T07:15:40.802Z,12448.00
2019-02-23T07:16:40.839Z,12596.00
2019-02-23T07:17:40.775Z,12856.00
2019-02-23T07:18:40.760Z,11608.00
2019-02-23T07:19:40.750Z,11044.00
2019-02-23T07:20:44.335Z,10288.00
2019-02-23T07:21:40.735Z,11140.00
2019-02-23T07:22:40.741Z,12476.00
2019-02-23T07:23:40.713Z,12648.00
2019-02-23T07:24:40.703Z,12612.00
2019-02-23T07:25:40.694Z,10556.00
2019-02-23T07:26:40.677Z,10748.00
2019-02-23T07:27:40.682Z,11288.00
2019-02-23T07:28:40.660Z,11704.00
2019-02-23T07:29:40.638Z,11644.00
2019-02-23T07:30:40.690Z,11976.00
2019-02-23T07:31:40.635Z,11388.00
2019-02-23T07:32:40.652Z,12052.00
2019-02-23T07:33:40.622Z,11016.00
2019-02-23T07:34:40.589Z,11244.00
2019-02-23T07:35:40.587Z,11012.00
2019-02-23T07:36:40.606Z,12156.00
2019-02-23T07:37:40.570Z,12016.00
2019-02-23T07:38:40.575Z,12036.00
2019-02-23T07:39:40.548Z,11744.00
2019-02-23T07:40:40.547Z,11624.00
2019-02-23T07:41:40.528Z,12176.00
2019-02-23T07:42:40.527Z,12856.00
2019-02-23T07:43:40.507Z,14688.00
2019-02-23T07:44:40.490Z,16256.00
2019-02-23T07:45:40.487Z,15192.00
2019-02-23T07:46:40.472Z,14792.00
2019-02-23T07:47:40.476Z,14592.00
2019-02-23T07:48:40.445Z,16352.00
2019-02-23T07:49:40.474Z,19456.00
2019-02-23T07:50:40.518Z,20064.00
2019-02-23T07:51:40.418Z,26944.00
2019-02-23T07:52:40.406Z,26752.00
2019-02-23T07:53:40.409Z,27872.00
2019-02-23T07:54:40.380Z,22528.00
2019-02-23T07:55:40.394Z,27136.00
2019-02-23T07:56:40.372Z,19680.00
2019-02-23T07:57:40.375Z,15412.00
2019-02-23T07:58:40.378Z,16736.00
2019-02-23T07:59:40.336Z,19552.00
2019-02-23T08:00:40.450Z,17184.00
2019-02-23T08:01:40.316Z,23904.00
2019-02-23T08:02:40.304Z,26112.00
2019-02-23T08:03:40.296Z,26272.00
2019-02-23T08:04:40.302Z,28256.00
2019-02-23T08:05:40.277Z,31296.00
2019-02-23T08:06:40.293Z,31136.00
2019-02-23T08:07:40.309Z,21728.00
2019-02-23T08:08:40.242Z,27744.00
2019-02-23T08:09:40.237Z,30176.00
2019-02-23T08:10:40.228Z,32448.00
2019-02-23T08:11:40.252Z,31296.00
2019-02-23T08:12:40.235Z,33152.00
2019-02-23T08:13:40.805Z,24544.00
2019-02-23T08:14:40.178Z,34464.00
2019-02-23T08:15:40.176Z,39232.00
2019-02-23T08:16:40.162Z,40672.00
2019-02-23T08:17:40.162Z,40736.00
2019-02-23T08:18:40.131Z,38176.00
2019-02-23T08:19:40.147Z,38016.00
2019-02-23T08:20:40.121Z,39648.00
2019-02-23T08:21:40.113Z,41504.00
2019-02-23T08:22:40.131Z,38080.00
2019-02-23T08:23:40.111Z,36224.00
2019-02-23T08:24:40.076Z,38272.00
2019-02-23T08:25:40.063Z,38336.00
2019-02-23T08:26:40.075Z,40768.00
2019-02-23T08:27:40.052Z,42080.00
2019-02-23T08:28:40.052Z,41504.00
2019-02-23T08:29:40.015Z,40992.00
2019-02-23T08:30:40.015Z,40000.00
2019-02-23T08:31:39.997Z,41696.00
2019-02-23T08:32:39.993Z,44192.00
2019-02-23T08:33:40.008Z,47040.00
2019-02-23T08:34:39.970Z,45248.00
2019-02-23T08:35:39.950Z,48672.00
2019-02-23T08:36:39.941Z,46784.00
2019-02-23T08:37:39.934Z,48416.00
2019-02-23T08:38:39.927Z,48736.00
2019-02-23T08:39:39.933Z,50720.00
2019-02-23T08:40:39.915Z,51424.00
2019-02-23T08:41:40.355Z,51520.00
2019-02-23T08:42:39.879Z,51968.00
2019-02-23T08:43:39.873Z,49632.00
2019-02-23T08:44:39.870Z,47744.00
2019-02-23T08:45:39.885Z,49632.00
2019-02-23T08:46:39.871Z,50944.00
2019-02-23T08:47:39.828Z,52096.00
2019-02-23T08:48:39.811Z,51616.00
2019-02-23T08:49:39.811Z,48736.00
2019-02-23T08:50:39.823Z,46688.00
2019-02-23T08:51:39.787Z,45312.00
2019-02-23T08:52:48.660Z,42272.00
2019-02-23T08:53:40.760Z,44928.00
2019-02-23T08:54:40.343Z,46336.00
2019-02-23T08:55:39.744Z,53248.00
2019-02-23T08:56:39.762Z,55232.00
2019-02-23T08:57:39.720Z,53120.00
2019-02-23T08:58:39.711Z,53472.00
2019-02-23T08:59:39.697Z,50720.00
2019-02-23T09:00:39.683Z,50432.00
2019-02-23T09:01:39.689Z,49312.00
2019-02-23T09:02:39.680Z,49408.00
2019-02-23T09:03:39.672Z,48928.00
2019-02-23T09:04:39.647Z,49344.00
2019-02-23T09:05:39.634Z,52544.00
2019-02-23T09:06:39.632Z,58752.00
2019-02-23T09:07:39.613Z,59456.00
2019-02-23T09:08:39.622Z,58784.00
2019-02-23T09:09:39.601Z,58688.00
2019-02-23T09:10:39.579Z,57088.00
2019-02-23T09:11:39.563Z,55008.00
2019-02-23T09:12:39.564Z,54080.00
2019-02-23T09:13:39.568Z,54688.00
2019-02-23T09:14:39.550Z,55072.00
2019-02-23T09:15:39.529Z,57696.00
2019-02-23T09:16:39.515Z,49984.00
2019-02-23T09:17:39.542Z,62240.00
2019-02-23T09:18:39.495Z,63168.00
2019-02-23T09:19:39.492Z,60928.00
2019-02-23T09:20:39.500Z,56064.00
2019-02-23T09:21:39.457Z,57728.00
2019-02-23T09:22:39.469Z,57440.00
2019-02-23T09:23:39.441Z,56384.00
2019-02-23T09:24:39.432Z,56544.00
2019-02-23T09:25:39.414Z,57088.00
2019-02-23T09:26:39.419Z,57696.00
2019-02-23T09:27:39.472Z,58720.00
2019-02-23T09:28:39.403Z,59872.00
2019-02-23T09:29:39.379Z,62848.00
2019-02-23T09:30:39.370Z,64000.00
2019-02-23T09:31:39.364Z,57888.00
2019-02-23T09:32:39.347Z,62400.00
2019-02-23T09:33:39.348Z,61888.00
2019-02-23T09:34:39.319Z,58112.00
2019-02-23T09:35:39.312Z,61056.00
2019-02-23T09:36:39.309Z,61664.00
2019-02-23T09:37:39.340Z,68384.00
2019-02-23T09:38:39.320Z,57856.00
2019-02-23T09:39:39.266Z,58400.00
2019-02-23T09:40:39.256Z,62560.00
2019-02-23T09:41:39.261Z,60736.00
2019-02-23T09:42:39.242Z,60000.00
2019-02-23T09:43:39.224Z,62208.00
2019-02-23T09:44:39.232Z,60288.00
2019-02-23T09:45:39.210Z,59776.00
2019-02-23T09:46:39.195Z,44384.00
2019-02-23T09:47:39.195Z,64192.00
2019-02-23T09:48:39.207Z,64608.00
2019-02-23T09:49:39.176Z,59712.00
2019-02-23T09:50:39.153Z,63936.00
2019-02-23T09:51:39.144Z,66816.00
2019-02-23T09:52:39.127Z,68992.00
2019-02-23T09:53:39.118Z,72352.00
2019-02-23T09:54:39.130Z,69152.00
2019-02-23T09:55:39.106Z,59136.00
2019-02-23T09:56:39.089Z,64544.00
2019-02-23T09:57:39.088Z,64832.00
2019-02-23T09:58:39.078Z,55328.00
2019-02-23T09:59:40.194Z,75872.00
2019-02-23T10:00:39.082Z,79168.00
2019-02-23T10:01:39.038Z,81888.00
2019-02-23T10:02:39.027Z,80192.00
2019-02-23T10:03:39.016Z,78560.00
2019-02-23T10:04:38.999Z,77280.00
2019-02-23T10:05:39.007Z,74912.00
2019-02-23T10:06:38.978Z,72384.00
2019-02-23T10:07:38.972Z,70848.00
2019-02-23T10:08:38.965Z,69824.00
2019-02-23T10:09:38.957Z,68992.00
2019-02-23T10:10:38.954Z,65696.00
2019-02-23T10:11:38.934Z,74720.00
2019-02-23T10:12:38.946Z,73216.00
2019-02-23T10:13:38.904Z,76768.00
2019-02-23T10:14:38.895Z,80160.00
2019-02-23T10:15:38.902Z,77536.00
2019-02-23T10:16:38.887Z,78144.00
2019-02-23T10:17:38.862Z,78272.00
2019-02-23T10:18:38.843Z,81664.00
2019-02-23T10:19:38.843Z,85792.00
2019-02-23T10:20:38.861Z,82976.00
2019-02-23T10:21:38.817Z,84288.00
2019-02-23T10:22:39.767Z,82240.00
2019-02-23T10:23:38.790Z,82304.00
2019-02-23T10:24:38.783Z,78752.00
2019-02-23T10:25:38.769Z,66400.00
2019-02-23T10:26:38.779Z,75520.00
2019-02-23T10:27:38.774Z,78368.00
2019-02-23T10:28:38.756Z,80320.00
2019-02-23T10:29:38.732Z,79328.00
2019-02-23T10:30:38.721Z,80192.00
2019-02-23T10:31:38.735Z,72320.00
2019-02-23T10:32:38.703Z,71776.00
2019-02-23T10:33:47.368Z,72960.00
2019-02-23T10:34:38.696Z,71392.00
2019-02-23T10:35:38.666Z,82592.00
2019-02-23T10:36:38.680Z,82048.00
2019-02-23T10:37:38.646Z,80256.00
2019-02-23T10:38:38.630Z,74720.00
2019-02-23T10:39:38.628Z,82432.00
2019-02-23T10:40:38.628Z,81792.00
2019-02-23T10:41:38.604Z,82112.00
2019-02-23T10:42:38.627Z,81216.00
2019-02-23T10:43:38.578Z,80864.00
2019-02-23T10:44:38.566Z,82848.00
2019-02-23T10:45:38.562Z,83392.00
2019-02-23T10:46:38.570Z,81568.00
2019-02-23T10:47:38.538Z,81472.00
2019-02-23T10:48:38.544Z,82784.00
2019-02-23T10:49:38.518Z,85760.00
2019-02-23T10:50:38.519Z,88576.00
2019-02-23T10:51:38.501Z,89312.00
2019-02-23T10:52:38.487Z,89632.00
2019-02-23T10:53:38.499Z,87136.00
2019-02-23T10:54:38.465Z,82752.00
2019-02-23T10:55:38.448Z,83040.00
2019-02-23T10:56:38.440Z,86656.00
2019-02-23T10:57:38.428Z,88320.00
2019-02-23T10:58:38.453Z,87072.00
2019-02-23T10:59:38.415Z,89760.00
2019-02-23T11:00:38.400Z,86048.00
2019-02-23T11:01:38.385Z,88640.00
2019-02-23T11:02:38.377Z,87776.00
2019-02-23T11:03:38.380Z,89408.00
2019-02-23T11:04:38.399Z,86240.00
2019-02-23T11:05:38.355Z,83616.00
2019-02-23T11:06:38.583Z,82112.00
2019-02-23T11:07:38.324Z,83456.00
2019-02-23T11:08:38.335Z,85984.00
2019-02-23T11:09:38.311Z,86368.00
2019-02-23T11:10:38.313Z,86528.00
2019-02-23T11:11:38.287Z,82912.00
2019-02-23T11:12:38.276Z,83200.00
2019-02-23T11:13:38.266Z,78144.00
2019-02-23T11:14:38.255Z,79776.00
2019-02-23T11:15:38.263Z,79712.00
2019-02-23T11:16:38.238Z,82432.00
2019-02-23T11:17:38.228Z,85536.00
2019-02-23T11:18:38.210Z,84672.00
2019-02-23T11:19:38.201Z,84864.00
2019-02-23T11:20:38.184Z,85824.00
2019-02-23T11:21:38.200Z,86432.00
2019-02-23T11:22:38.164Z,86048.00
2019-02-23T11:23:44.251Z,83264.00
2019-02-23T11:24:39.148Z,84672.00
2019-02-23T11:25:38.141Z,85184.00
2019-02-23T11:26:38.156Z,84320.00
2019-02-23T11:27:38.111Z,83072.00
2019-02-23T11:28:38.100Z,81984.00
2019-02-23T11:29:38.126Z,81568.00
2019-02-23T11:30:38.075Z,82752.00
2019-02-23T11:31:38.113Z,85856.00
2019-02-23T11:32:38.058Z,86880.00
2019-02-23T11:33:38.050Z,84448.00
2019-02-23T11:34:38.036Z,84576.00
2019-02-23T11:35:38.038Z,85088.00
2019-02-23T11:36:38.018Z,86400.00
2019-02-23T11:37:38.044Z,87456.00
2019-02-23T11:38:37.996Z,84288.00
2019-02-23T11:39:37.988Z,82944.00
2019-02-23T11:40:37.978Z,80800.00
2019-02-23T11:41:37.970Z,84736.00
2019-02-23T11:42:37.948Z,84512.00
2019-02-23T11:43:37.966Z,83808.00
2019-02-23T11:44:37.937Z,80736.00
2019-02-23T11:45:37.932Z,87552.00
2019-02-23T11:46:37.917Z,88000.00
2019-02-23T11:47:37.896Z,88832.00
2019-02-23T11:48:37.929Z,84384.00
2019-02-23T11:49:37.950Z,75776.00
2019-02-23T11:50:37.874Z,78976.00
2019-02-23T11:51:37.879Z,85344.00
2019-02-23T11:52:39.472Z,84256.00
2019-02-23T11:53:37.832Z,83296.00
2019-02-23T11:54:37.854Z,87872.00
2019-02-23T11:55:37.837Z,88320.00
2019-02-23T11:56:37.826Z,88736.00
2019-02-23T11:57:37.826Z,86176.00
2019-02-23T11:58:37.789Z,83584.00
2019-02-23T11:59:37.802Z,90528.00
2019-02-23T12:00:37.774Z,92128.00
2019-02-23T12:01:37.751Z,91936.00
2019-02-23T12:02:37.736Z,91104.00
2019-02-23T12:03:37.745Z,90240.00
2019-02-23T12:04:37.732Z,87648.00
2019-02-23T12:05:37.737Z,76800.00
2019-02-23T12:06:37.703Z,67328.00
2019-02-23T12:07:37.706Z,83744.00
2019-02-23T12:08:37.684Z,85664.00
2019-02-23T12:09:37.684Z,83904.00
2019-02-23T12:10:37.665Z,86752.00
2019-02-23T12:11:37.680Z,85440.00
2019-02-23T12:12:37.649Z,85600.00
2019-02-23T12:13:37.626Z,81696.00
2019-02-23T12:14:37.616Z,80192.00
2019-02-23T12:15:37.608Z,78688.00
2019-02-23T12:16:37.647Z,76672.00
2019-02-23T12:17:37.659Z,76704.00
2019-02-23T12:18:37.576Z,72480.00
2019-02-23T12:19:37.595Z,75104.00
2019-02-23T12:20:37.552Z,75936.00
2019-02-23T12:21:37.587Z,90240.00
2019-02-23T12:22:37.546Z,91136.00
2019-02-23T12:23:37.520Z,88544.00
2019-02-23T12:24:37.513Z,62688.00
2019-02-23T12:25:37.501Z,56544.00
2019-02-23T12:26:37.493Z,49664.00
2019-02-23T12:27:37.516Z,46784.00
2019-02-23T12:28:37.472Z,42016.00